Search for airport 
image banner adimage banner adimage banner ad
image banner ad

4CA7 - Johnsen

Located in Chico, United States

ICAO - 4CA7, IATA -

Data provided by Airmate  

General information

Coordinates: N39°40'15" W121°53'9"
Elevation is 190 feet MSL.
Magnetic variation is 16° East
View others Airports in California

Operational data

Special qualification required
Current time UTC:
Current local time:
Weather at : KCIC - Chico Muni ( 14 km )
METAR: KCIC 221349Z 12015KT 40SM SCT180 18/12 A2988
View NOTAMs / SUP AIP / TFR affecting this airport [VIEW]
Communications frequencies: [VIEW]

Runways:

RWY identifierQFULength (ft)Width (ft)SurfaceLDA (ft)
16270060GRASS
34270060GRASS

Airport contact information

Address: Chico United States

Satellite view of 4CA7